createdAt,value
2022-08-26T00:01:45.161Z,101726.63
2022-08-26T00:04:12.706Z,101731.03
2022-08-26T00:06:42.278Z,101726.56
2022-08-26T00:09:09.909Z,101727.56
2022-08-26T00:11:36.990Z,101720.41
2022-08-26T00:14:03.810Z,101721.84
2022-08-26T00:16:31.914Z,101721.84
2022-08-26T00:18:58.842Z,101732.00
2022-08-26T00:21:25.485Z,101729.41
2022-08-26T00:23:52.147Z,101723.16
2022-08-26T00:26:19.298Z,101722.72
2022-08-26T00:28:47.557Z,101723.72
2022-08-26T00:31:14.495Z,101722.94
2022-08-26T00:33:41.443Z,101728.38
2022-08-26T00:36:08.426Z,101727.13
2022-08-26T00:38:46.698Z,101735.13
2022-08-26T00:41:13.393Z,101733.47
2022-08-26T00:43:47.251Z,101739.72
2022-08-26T00:46:16.918Z,101736.28
2022-08-26T00:48:44.162Z,101738.66
2022-08-26T00:51:23.459Z,101745.06
2022-08-26T00:53:59.161Z,101736.19
2022-08-26T00:56:34.814Z,101742.31
2022-08-26T00:59:03.379Z,101742.59
2022-08-26T01:01:31.416Z,101736.53
2022-08-26T01:03:59.149Z,101737.59
2022-08-26T01:06:27.479Z,101733.38
2022-08-26T01:08:54.656Z,101732.88
2022-08-26T01:11:21.510Z,101724.50
2022-08-26T01:13:48.794Z,101732.94
2022-08-26T01:16:17.159Z,101730.47
2022-08-26T01:18:45.446Z,101729.94
2022-08-26T01:21:29.549Z,101739.88
2022-08-26T01:23:57.906Z,101731.00
2022-08-26T01:26:26.512Z,101732.44
2022-08-26T01:28:55.664Z,101730.53
2022-08-26T01:31:25.014Z,101735.88
2022-08-26T01:33:56.203Z,101741.28
2022-08-26T01:36:24.594Z,101736.56
2022-08-26T01:38:51.466Z,101731.50
2022-08-26T01:41:19.933Z,101731.00
2022-08-26T01:43:56.014Z,101732.97
2022-08-26T01:46:23.147Z,101730.44
2022-08-26T01:48:54.469Z,101736.91
2022-08-26T01:51:22.975Z,101741.97
2022-08-26T01:53:49.772Z,101739.16
2022-08-26T01:56:16.736Z,101739.22
2022-08-26T01:58:46.930Z,101742.59
2022-08-26T02:01:14.622Z,101744.59
2022-08-26T02:04:01.534Z,101736.13
2022-08-26T02:06:28.399Z,101744.06
2022-08-26T02:08:56.606Z,101745.97
2022-08-26T02:11:23.335Z,101745.28
2022-08-26T02:13:52.382Z,101749.91
2022-08-26T02:16:24.615Z,101745.50
2022-08-26T02:18:53.299Z,101739.03
2022-08-26T02:21:20.585Z,101740.63
2022-08-26T02:23:47.866Z,101737.88
2022-08-26T02:26:19.965Z,101745.81
2022-08-26T02:28:50.501Z,101751.72
2022-08-26T02:31:17.361Z,101743.22
2022-08-26T02:33:44.142Z,101749.22
2022-08-26T02:36:10.874Z,101742.16
2022-08-26T02:38:40.242Z,101739.56
2022-08-26T02:41:10.391Z,101730.81
2022-08-26T02:43:37.078Z,101735.97
2022-08-26T02:46:04.017Z,101736.81
2022-08-26T02:48:31.213Z,101742.16
2022-08-26T02:51:01.963Z,101738.28
2022-08-26T02:53:31.907Z,101738.56
2022-08-26T02:56:02.388Z,101741.09
2022-08-26T02:58:29.878Z,101737.03
2022-08-26T03:00:56.618Z,101738.44
2022-08-26T03:03:24.238Z,101742.44
2022-08-26T03:05:51.370Z,101745.19
2022-08-26T03:08:18.554Z,101741.59
2022-08-26T03:10:47.618Z,101741.97
2022-08-26T03:13:15.306Z,101748.41
2022-08-26T03:15:41.956Z,101747.97
2022-08-26T03:18:09.540Z,101746.59
2022-08-26T03:20:37.002Z,101747.72
2022-08-26T03:23:03.696Z,101753.66
2022-08-26T03:25:31.043Z,101755.34
2022-08-26T03:27:57.764Z,101753.13
2022-08-26T03:30:44.959Z,101750.09
2022-08-26T03:33:13.331Z,101757.38
2022-08-26T03:35:41.190Z,101758.25
2022-08-26T03:38:08.574Z,101756.91
2022-08-26T03:40:36.757Z,101755.50
2022-08-26T03:43:04.490Z,101752.16
2022-08-26T03:45:31.362Z,101754.69
2022-08-26T03:47:58.344Z,101762.88
2022-08-26T03:50:25.144Z,101761.47
2022-08-26T03:52:54.082Z,101758.66
2022-08-26T03:55:23.977Z,101752.44
2022-08-26T03:57:50.916Z,101758.94
2022-08-26T04:00:18.533Z,101752.19
2022-08-26T04:02:46.375Z,101753.00
2022-08-26T04:05:14.546Z,101748.50
2022-08-26T04:07:42.825Z,101752.78
2022-08-26T04:10:11.182Z,101749.72
2022-08-26T04:12:38.593Z,101754.53
2022-08-26T04:15:06.560Z,101753.69
2022-08-26T04:17:33.371Z,101750.03
2022-08-26T04:20:00.137Z,101754.88
2022-08-26T04:22:27.147Z,101754.59
2022-08-26T04:25:04.260Z,101748.41
2022-08-26T04:27:33.905Z,101752.91
2022-08-26T04:30:01.055Z,101750.38
2022-08-26T04:32:27.844Z,101748.16
2022-08-26T04:35:04.607Z,101748.16
2022-08-26T04:37:31.468Z,101745.13
2022-08-26T04:39:59.388Z,101746.13
2022-08-26T04:42:26.443Z,101742.81
2022-08-26T04:45:05.876Z,101740.34
2022-08-26T04:47:36.700Z,101739.78
2022-08-26T04:50:03.508Z,101741.75
2022-08-26T04:52:30.205Z,101741.78
2022-08-26T04:55:03.007Z,101740.66
2022-08-26T04:57:33.623Z,101743.47
2022-08-26T05:00:00.821Z,101742.34
2022-08-26T05:02:28.230Z,101748.44
2022-08-26T05:05:03.396Z,101749.34
2022-08-26T05:07:31.396Z,101750.19
2022-08-26T05:09:58.526Z,101752.75
2022-08-26T05:12:25.512Z,101742.88
2022-08-26T05:15:03.068Z,101749.38
2022-08-26T05:17:29.858Z,101747.13
2022-08-26T05:19:56.703Z,101738.47
2022-08-26T05:22:23.348Z,101742.16
2022-08-26T05:24:52.955Z,101742.44
2022-08-26T05:27:20.846Z,101752.31
2022-08-26T05:29:48.403Z,101746.69
2022-08-26T05:32:21.801Z,101748.66
2022-08-26T05:34:48.472Z,101753.75
2022-08-26T05:37:19.455Z,101753.44
2022-08-26T05:39:51.395Z,101756.25
2022-08-26T05:42:19.988Z,101753.44
2022-08-26T05:44:53.695Z,101758.84
2022-08-26T05:47:22.178Z,101755.19
2022-08-26T05:49:51.792Z,101745.91
2022-08-26T05:52:19.176Z,101755.19
2022-08-26T05:54:45.831Z,101754.34
2022-08-26T05:57:14.535Z,101756.31
2022-08-26T05:59:41.199Z,101755.75
2022-08-26T06:02:08.617Z,101761.69
2022-08-26T06:04:35.648Z,101758.88
2022-08-26T06:07:03.163Z,101759.72
2022-08-26T06:09:32.077Z,101750.72
2022-08-26T06:11:59.336Z,101761.13
2022-08-26T06:14:26.327Z,101761.13
2022-08-26T06:16:53.027Z,101762.81
2022-08-26T06:19:20.255Z,101757.19
2022-08-26T06:21:51.384Z,101757.19
2022-08-26T06:24:39.573Z,101765.34
2022-08-26T06:27:09.884Z,101763.94
2022-08-26T06:29:38.236Z,101767.03
2022-08-26T06:32:05.421Z,101768.72
2022-08-26T06:34:32.874Z,101772.66
2022-08-26T06:37:01.391Z,101772.09
2022-08-26T06:39:30.583Z,101772.09
2022-08-26T06:41:57.921Z,101773.47
2022-08-26T06:44:24.630Z,101777.72
2022-08-26T06:46:51.490Z,101770.97
2022-08-26T06:49:26.676Z,101769.47
2022-08-26T06:51:54.602Z,101772.94
2022-08-26T06:54:21.540Z,101774.03
2022-08-26T06:56:48.276Z,101774.03
2022-08-26T06:59:16.438Z,101783.28
2022-08-26T07:01:45.130Z,101778.16
2022-08-26T07:04:15.689Z,101777.81
2022-08-26T07:06:49.129Z,101786.22
2022-08-26T07:09:16.260Z,101780.28
2022-08-26T07:11:44.688Z,101780.22
2022-08-26T07:14:12.359Z,101774.00
2022-08-26T07:16:39.333Z,101777.38
2022-08-26T07:19:10.847Z,101769.50
2022-08-26T07:21:38.188Z,101766.59
2022-08-26T07:24:04.892Z,101766.31
2022-08-26T07:26:31.929Z,101773.34
2022-08-26T07:29:00.091Z,101767.38
2022-08-26T07:31:28.059Z,101771.88
2022-08-26T07:33:56.964Z,101774.44
2022-08-26T07:36:24.529Z,101781.66
2022-08-26T07:38:51.991Z,101782.84
2022-08-26T07:41:20.235Z,101786.16
2022-08-26T07:43:46.970Z,101789.81
2022-08-26T07:46:18.681Z,101781.94
2022-08-26T07:48:54.107Z,101771.50
2022-08-26T07:51:21.770Z,101776.84
2022-08-26T07:53:52.408Z,101782.19
2022-08-26T07:56:19.729Z,101779.88
2022-08-26T07:58:51.493Z,101776.22
2022-08-26T08:01:23.991Z,101781.28
2022-08-26T08:03:51.905Z,101778.16
2022-08-26T08:06:19.685Z,101778.41
2022-08-26T08:08:46.546Z,101781.22
2022-08-26T08:11:14.342Z,101780.38
2022-08-26T08:13:41.535Z,101776.72
2022-08-26T08:16:12.776Z,101774.13
2022-08-26T08:18:40.480Z,101773.63
2022-08-26T08:21:23.963Z,101768.78
2022-08-26T08:23:52.056Z,101766.81
2022-08-26T08:26:18.854Z,101763.72
2022-08-26T08:28:47.911Z,101766.53
2022-08-26T08:31:45.013Z,101768.50
2022-08-26T08:34:08.677Z,101763.16
2022-08-26T08:36:36.219Z,101770.81
2022-08-26T08:39:03.127Z,101773.63
2022-08-26T08:41:36.475Z,101773.84
2022-08-26T08:44:04.516Z,101767.91
2022-08-26T08:46:31.605Z,101776.34
2022-08-26T08:49:00.165Z,101768.75
2022-08-26T08:51:26.829Z,101766.47
2022-08-26T08:53:55.021Z,101770.97
2022-08-26T08:56:24.792Z,101776.00
2022-08-26T08:59:00.328Z,101773.75
2022-08-26T09:01:35.281Z,101767.25
2022-08-26T09:04:08.090Z,101770.06
2022-08-26T09:06:35.446Z,101772.56
2022-08-26T09:09:03.045Z,101769.47
2022-08-26T09:11:30.725Z,101778.75
2022-08-26T09:13:57.884Z,101777.06
2022-08-26T09:16:27.826Z,101773.97
2022-08-26T09:18:57.467Z,101776.47
2022-08-26T09:21:25.409Z,101771.09
2022-08-26T09:23:53.766Z,101771.09
2022-08-26T09:26:30.569Z,101769.13
2022-08-26T09:28:59.382Z,101771.59
2022-08-26T09:31:29.595Z,101773.22
2022-08-26T09:34:06.399Z,101763.09
2022-08-26T09:36:41.102Z,101770.94
2022-08-26T09:39:27.077Z,101774.91
2022-08-26T09:42:07.957Z,101762.47
2022-08-26T09:45:03.244Z,101771.19
2022-08-26T09:47:37.254Z,101763.25
2022-08-26T09:50:10.047Z,101764.31
2022-08-26T09:52:40.323Z,101761.13
2022-08-26T09:55:21.172Z,101767.41
2022-08-26T09:57:51.619Z,101764.59
2022-08-26T10:00:39.002Z,101770.44
2022-08-26T10:03:09.070Z,101768.53
2022-08-26T10:05:46.586Z,101758.94
2022-08-26T10:08:20.109Z,101760.31
2022-08-26T10:10:53.149Z,101755.75
2022-08-26T10:13:33.733Z,101757.97
2022-08-26T10:16:06.309Z,101760.13
2022-08-26T10:18:40.482Z,101761.28
2022-08-26T10:21:21.041Z,101756.16
2022-08-26T10:23:50.785Z,101763.47
2022-08-26T10:26:32.782Z,101762.03
2022-08-26T10:29:07.289Z,101753.88
2022-08-26T10:31:40.557Z,101755.00
2022-08-26T10:34:08.797Z,101751.84
2022-08-26T10:37:13.874Z,101746.72
2022-08-26T10:39:58.556Z,101741.00
2022-08-26T10:42:37.569Z,101747.69
2022-08-26T10:45:15.653Z,101736.97
2022-08-26T10:47:49.281Z,101733.53
2022-08-26T10:50:15.948Z,101732.94
2022-08-26T10:53:04.382Z,101735.97
2022-08-26T10:55:57.462Z,101730.84
2022-08-26T10:58:38.027Z,101735.88
2022-08-26T11:01:36.519Z,101734.41
2022-08-26T11:04:15.003Z,101736.63
2022-08-26T11:06:41.975Z,101730.38
2022-08-26T11:09:09.076Z,101729.25
2022-08-26T11:11:41.557Z,101724.97
2022-08-26T11:14:10.975Z,101732.78
2022-08-26T11:16:44.714Z,101725.16
2022-08-26T11:19:45.578Z,101726.22
2022-08-26T11:22:29.140Z,101723.94
2022-08-26T11:25:06.957Z,101725.38
2022-08-26T11:27:51.668Z,101722.56
2022-08-26T11:30:19.777Z,101720.66
2022-08-26T11:32:54.551Z,101721.72
2022-08-26T11:35:21.210Z,101718.38
2022-08-26T11:37:48.137Z,101718.09
2022-08-26T11:40:20.878Z,101715.28
2022-08-26T11:42:57.336Z,101720.28
2022-08-26T11:45:37.881Z,101705.03
2022-08-26T11:48:21.236Z,101715.69
2022-08-26T11:51:01.899Z,101713.41
2022-08-26T11:53:30.648Z,101705.78
2022-08-26T11:56:02.013Z,101704.34
2022-08-26T11:58:29.193Z,101699.84
2022-08-26T12:01:03.618Z,101699.22
2022-08-26T12:03:41.888Z,101698.94
2022-08-26T12:06:15.918Z,101704.25
2022-08-26T12:08:44.357Z,101700.31
2022-08-26T12:11:13.738Z,101694.34
2022-08-26T12:13:41.090Z,101691.50
2022-08-26T12:16:23.142Z,101691.72
2022-08-26T12:18:50.460Z,101693.09
2022-08-26T12:21:25.735Z,101690.78
2022-08-26T12:23:54.850Z,101694.44
2022-08-26T12:26:25.597Z,101689.34
2022-08-26T12:28:54.320Z,101688.50
2022-08-26T12:31:40.703Z,101695.28
2022-08-26T12:34:11.689Z,101696.13
2022-08-26T12:36:54.090Z,101685.38
2022-08-26T12:39:29.939Z,101690.19
2022-08-26T12:41:57.807Z,101689.03
2022-08-26T12:44:35.108Z,101677.22
2022-08-26T12:47:22.860Z,101680.88
2022-08-26T12:50:06.042Z,101682.56
2022-08-26T12:52:34.492Z,101683.06
2022-08-26T12:55:18.212Z,101681.38
2022-08-26T12:57:45.069Z,101671.28
2022-08-26T13:00:28.349Z,101671.47
2022-08-26T13:02:55.308Z,101676.59
2022-08-26T13:05:23.346Z,101675.97
2022-08-26T13:08:08.727Z,101673.16
2022-08-26T13:10:36.600Z,101667.50
2022-08-26T13:13:03.252Z,101660.69
2022-08-26T13:15:29.953Z,101657.88
2022-08-26T13:17:58.607Z,101667.72
2022-08-26T13:20:25.276Z,101649.94
2022-08-26T13:22:58.682Z,101657.56
2022-08-26T13:25:25.940Z,101643.16
2022-08-26T13:27:52.600Z,101631.22
2022-08-26T13:30:20.015Z,101643.66
2022-08-26T13:32:46.676Z,101640.84
2022-08-26T13:35:13.375Z,101634.06
2022-08-26T13:37:40.044Z,101630.94
2022-08-26T13:40:09.189Z,101628.72
2022-08-26T13:42:35.888Z,101624.75
2022-08-26T13:45:04.165Z,101622.47
2022-08-26T13:47:31.064Z,101616.28
2022-08-26T13:49:57.745Z,101615.69
2022-08-26T13:52:27.234Z,101616.47
2022-08-26T13:55:05.019Z,101612.00
2022-08-26T13:57:31.772Z,101618.50
2022-08-26T13:59:59.591Z,101612.22
2022-08-26T14:02:26.846Z,101617.31
2022-08-26T14:05:04.261Z,101608.56
2022-08-26T14:07:30.889Z,101604.59
2022-08-26T14:09:58.011Z,101607.06
2022-08-26T14:12:25.346Z,101605.63
2022-08-26T14:15:03.924Z,101594.63
2022-08-26T14:17:32.188Z,101598.59
2022-08-26T14:19:58.939Z,101599.78
2022-08-26T14:22:25.591Z,101597.47
2022-08-26T14:25:03.522Z,101591.31
2022-08-26T14:27:32.656Z,101593.19
2022-08-26T14:29:59.682Z,101590.47
2022-08-26T14:32:27.465Z,101587.00
2022-08-26T14:35:03.391Z,101581.38
2022-08-26T14:37:30.058Z,101587.00
2022-08-26T14:39:56.947Z,101584.72
2022-08-26T14:42:31.631Z,101583.53
2022-08-26T14:45:06.700Z,101579.06
2022-08-26T14:47:33.403Z,101584.72
2022-08-26T14:50:00.615Z,101588.38
2022-08-26T14:52:27.854Z,101580.22
2022-08-26T14:55:04.013Z,101577.41
2022-08-26T14:57:30.644Z,101575.41
2022-08-26T14:59:57.893Z,101585.03
2022-08-26T15:02:33.581Z,101580.53
2022-08-26T15:05:05.185Z,101584.50
2022-08-26T15:07:31.867Z,101571.75
2022-08-26T15:09:58.527Z,101578.25
2022-08-26T15:12:25.138Z,101567.78
2022-08-26T15:15:04.071Z,101568.09
2022-08-26T15:17:31.357Z,101566.41
2022-08-26T15:19:58.090Z,101558.16
2022-08-26T15:22:24.821Z,101564.97
2022-08-26T15:25:03.578Z,101561.59
2022-08-26T15:27:30.329Z,101564.63
2022-08-26T15:29:56.966Z,101561.81
2022-08-26T15:32:23.673Z,101570.28
2022-08-26T15:35:04.462Z,101566.31
2022-08-26T15:37:34.973Z,101562.16
2022-08-26T15:40:01.708Z,101577.59
2022-08-26T15:42:28.355Z,101570.50
2022-08-26T15:45:03.767Z,101564.31
2022-08-26T15:47:31.213Z,101571.31
2022-08-26T15:50:02.091Z,101560.84
2022-08-26T15:52:28.790Z,101554.38
2022-08-26T15:57:30.843Z,101558.56
2022-08-26T15:59:57.430Z,101553.75
2022-08-26T16:02:24.117Z,101555.22
2022-08-26T16:05:04.150Z,101554.38
2022-08-26T16:07:31.677Z,101554.38
2022-08-26T16:09:58.347Z,101551.06
2022-08-26T16:12:24.940Z,101546.25
2022-08-26T16:15:02.107Z,101552.72
2022-08-26T16:17:28.744Z,101540.91
2022-08-26T16:19:56.386Z,101540.91
2022-08-26T16:22:22.980Z,101545.22
2022-08-26T16:24:57.153Z,101540.41
2022-08-26T16:27:23.937Z,101534.75
2022-08-26T16:29:50.554Z,101538.72
2022-08-26T16:32:17.221Z,101533.09
2022-08-26T16:34:47.110Z,101533.69
2022-08-26T16:37:23.621Z,101536.00
2022-08-26T16:39:50.305Z,101533.69
2022-08-26T16:42:16.942Z,101534.88
2022-08-26T16:44:46.411Z,101533.69
2022-08-26T16:47:13.541Z,101533.69
2022-08-26T16:49:40.742Z,101525.56
2022-08-26T16:52:08.038Z,101529.22
2022-08-26T16:54:34.948Z,101524.72
2022-08-26T16:57:02.009Z,101521.91
2022-08-26T16:59:28.631Z,101531.22
2022-08-26T17:01:55.345Z,101530.88
2022-08-26T17:04:22.147Z,101522.41
2022-08-26T17:06:48.942Z,101527.53
2022-08-26T17:09:15.707Z,101532.03
2022-08-26T17:11:42.400Z,101530.69
2022-08-26T17:14:09.207Z,101532.34
2022-08-26T17:16:35.974Z,101534.03
2022-08-26T17:19:05.037Z,101528.69
2022-08-26T17:21:32.608Z,101529.84
2022-08-26T17:23:59.513Z,101540.50
2022-08-26T17:26:26.758Z,101530.88
2022-08-26T17:28:53.934Z,101517.41
2022-08-26T17:31:20.990Z,101517.41
2022-08-26T17:33:53.730Z,101525.03
2022-08-26T17:36:21.410Z,101525.03
2022-08-26T17:38:49.177Z,101522.53
2022-08-26T17:41:19.114Z,101524.19
2022-08-26T17:43:45.773Z,101525.69
2022-08-26T17:46:13.054Z,101524.53
2022-08-26T17:48:40.376Z,101524.31
2022-08-26T17:51:14.544Z,101527.97
2022-08-26T17:53:41.625Z,101524.31
2022-08-26T17:56:11.762Z,101519.50
2022-08-26T17:58:40.200Z,101520.97
2022-08-26T18:01:07.262Z,101519.84
2022-08-26T18:03:35.402Z,101517.84
2022-08-26T18:06:02.309Z,101523.50
2022-08-26T18:08:32.238Z,101521.47
2022-08-26T18:10:59.444Z,101518.47
2022-08-26T18:13:26.310Z,101519.59
2022-08-26T18:15:53.229Z,101526.09
2022-08-26T18:18:20.109Z,101523.28
2022-08-26T18:20:47.057Z,101526.94
2022-08-26T18:23:19.535Z,101527.25
2022-08-26T18:25:47.322Z,101529.25
2022-08-26T18:28:14.157Z,101526.72
2022-08-26T18:30:44.386Z,101534.06
2022-08-26T18:33:11.992Z,101531.53
2022-08-26T18:35:43.057Z,101535.50
2022-08-26T18:38:11.803Z,101536.34
2022-08-26T18:40:40.256Z,101547.63
2022-08-26T18:43:07.073Z,101532.38
2022-08-26T18:45:34.024Z,101541.69
2022-08-26T18:48:02.310Z,101545.94
2022-08-26T18:50:29.484Z,101548.47
2022-08-26T18:52:56.231Z,101545.66
2022-08-26T18:55:23.237Z,101548.47
2022-08-26T18:57:50.950Z,101541.16
2022-08-26T19:00:17.965Z,101536.34
2022-08-26T19:02:50.515Z,101540.00
2022-08-26T19:05:18.665Z,101542.00
2022-08-26T19:07:46.567Z,101546.78
2022-08-26T19:10:14.929Z,101546.78
2022-08-26T19:12:42.831Z,101541.16
2022-08-26T19:15:11.230Z,101552.44
2022-08-26T19:17:38.080Z,101553.28
2022-08-26T19:20:05.632Z,101555.25
2022-08-26T19:22:32.498Z,101550.44
2022-08-26T19:25:05.104Z,101556.09
2022-08-26T19:27:32.177Z,101550.44
2022-08-26T19:29:59.211Z,101552.44
2022-08-26T19:32:25.949Z,101552.44
2022-08-26T19:35:01.287Z,101557.25
2022-08-26T19:37:28.114Z,101556.44
2022-08-26T19:39:56.100Z,101558.06
2022-08-26T19:42:23.082Z,101553.59
2022-08-26T19:45:25.245Z,101554.09
2022-08-26T19:47:53.775Z,101552.78
2022-08-26T19:50:20.667Z,101558.59
2022-08-26T19:52:47.871Z,101555.78
2022-08-26T19:55:17.295Z,101567.06
2022-08-26T19:57:44.508Z,101566.53
2022-08-26T20:00:12.859Z,101565.69
2022-08-26T20:02:39.950Z,101569.69
2022-08-26T20:05:09.124Z,101564.91
2022-08-26T20:07:36.362Z,101569.69
2022-08-26T20:10:04.165Z,101572.53
2022-08-26T20:12:33.571Z,101577.00
2022-08-26T20:15:03.980Z,101566.22
2022-08-26T20:17:31.550Z,101578.66
2022-08-26T20:20:31.609Z,101576.88
2022-08-26T20:23:00.684Z,101581.50
2022-08-26T20:25:27.317Z,101586.28
2022-08-26T20:27:53.919Z,101587.13
2022-08-26T20:30:20.670Z,101589.44
2022-08-26T20:32:47.365Z,101587.66
2022-08-26T20:35:14.136Z,101588.50
2022-08-26T20:37:41.411Z,101592.47
2022-08-26T20:40:09.552Z,101595.59
2022-08-26T20:42:36.583Z,101591.09
2022-08-26T20:45:03.482Z,101591.09
2022-08-26T20:47:35.183Z,101596.75
2022-08-26T20:50:02.816Z,101587.78
2022-08-26T20:52:29.833Z,101598.75
2022-08-26T20:55:04.482Z,101599.56
2022-08-26T20:57:31.397Z,101606.03
2022-08-26T20:59:58.171Z,101596.75
2022-08-26T21:02:25.088Z,101595.28
2022-08-26T21:05:01.495Z,101607.22
2022-08-26T21:07:28.853Z,101601.88
2022-08-26T21:09:56.499Z,101599.06
2022-08-26T21:12:23.353Z,101603.03
2022-08-26T21:14:57.305Z,101593.72
2022-08-26T21:17:24.120Z,101601.03
2022-08-26T21:19:50.892Z,101596.22
2022-08-26T21:22:17.830Z,101595.41
2022-08-26T21:24:44.794Z,101598.22
2022-08-26T21:27:11.544Z,101601.34
2022-08-26T21:29:38.310Z,101589.75
2022-08-26T21:32:05.759Z,101594.56
2022-08-26T21:34:32.417Z,101587.47
2022-08-26T21:36:59.220Z,101587.78
2022-08-26T21:39:25.976Z,101586.94
2022-08-26T21:41:52.606Z,101596.75
2022-08-26T21:44:19.334Z,101597.91
2022-08-26T21:46:46.825Z,101595.41
2022-08-26T21:49:15.880Z,101593.72
2022-08-26T21:51:48.033Z,101592.56
2022-08-26T21:54:15.138Z,101606.69
2022-08-26T21:56:44.738Z,101600.50
2022-08-26T21:59:12.140Z,101601.34
2022-08-26T22:01:38.942Z,101602.19
2022-08-26T22:04:06.539Z,101609.81
2022-08-26T22:06:34.145Z,101600.41
2022-08-26T22:09:00.786Z,101603.56
2022-08-26T22:11:28.312Z,101605.84
2022-08-26T22:13:57.023Z,101605.84
2022-08-26T22:16:24.482Z,101600.19
2022-08-26T22:18:51.293Z,101603.84
2022-08-26T22:21:19.561Z,101603.31
2022-08-26T22:23:46.673Z,101603.03
2022-08-26T22:26:15.333Z,101605.00
2022-08-26T22:28:51.907Z,101605.00
2022-08-26T22:31:28.053Z,101608.97
2022-08-26T22:34:05.943Z,101605.84
2022-08-26T22:36:32.618Z,101599.34
2022-08-26T22:38:59.351Z,101602.72
2022-08-26T22:41:26.406Z,101602.72
2022-08-26T22:43:53.131Z,101603.31
2022-08-26T22:46:21.395Z,101605.00
2022-08-26T22:48:48.132Z,101602.72
2022-08-26T22:51:20.948Z,101606.97
2022-08-26T22:53:47.808Z,101605.84
2022-08-26T22:56:14.990Z,101608.66
2022-08-26T22:58:42.038Z,101609.81
2022-08-26T23:01:08.997Z,101614.59
2022-08-26T23:03:35.899Z,101612.97
2022-08-26T23:06:05.218Z,101607.81
2022-08-26T23:08:32.017Z,101617.03
2022-08-26T23:10:58.728Z,101610.66
2022-08-26T23:13:25.427Z,101616.28
2022-08-26T23:15:59.483Z,101614.94
2022-08-26T23:18:26.080Z,101606.16
2022-08-26T23:20:52.707Z,101613.81
2022-08-26T23:23:19.332Z,101614.00
2022-08-26T23:25:50.573Z,101617.13
2022-08-26T23:28:17.724Z,101610.34
2022-08-26T23:30:44.348Z,101615.44
2022-08-26T23:33:10.976Z,101613.81
2022-08-26T23:35:37.663Z,101614.09
2022-08-26T23:38:07.721Z,101612.97
2022-08-26T23:40:37.072Z,101621.72
2022-08-26T23:43:05.186Z,101616.50
2022-08-26T23:45:32.173Z,101616.94
2022-08-26T23:47:59.471Z,101618.91
2022-08-26T23:50:48.307Z,101622.03
2022-08-26T23:53:19.800Z,101621.94
2022-08-26T23:55:48.537Z,101617.75
2022-08-26T23:58:16.055Z,101618.06
